| time (UTC) | temp C | wind direction | speed KPH | gust KPH | rain 1hr cm | rain 24hr cm | rain mn cm | humidity % | barometer mb |
| 20260505064024 | 9 | 181 | 1.6 | 6.4 | 0.00 | 0.05 | 0.00 | 87 | 1010.8 |
| 20260505063024 | 9 | 193 | 3.2 | 6.4 | 0.00 | 0.05 | 0.00 | 88 | 1010.5 |
| 20260505062024 | 9 | 145 | 1.6 | 6.4 | 0.00 | 0.05 | 0.00 | 90 | 1010.8 |
| 20260505055024 | 8 | 205 | 4.8 | 6.4 | 0.00 | 0.05 | 0.05 | 91 | 1010.8 |
| 20260505054024 | 8 | 201 | 3.2 | 8.0 | 0.00 | 0.05 | 0.05 | 89 | 1010.5 |
| 20260505053023 | 8 | 189 | 4.8 | 8.0 | 0.00 | 0.05 | 0.05 | 88 | 1010.5 |
| 20260505052024 | 8 | 190 | 3.2 | 6.4 | 0.00 | 0.05 | 0.05 | 91 | 1010.5 |
| 20260505051024 | 8 | 105 | 0.0 | 4.8 | 0.00 | 0.05 | 0.05 | 91 | 1010.5 |
| 20260505040024 | 8 | 272 | 8.0 | 9.7 | 0.05 | 0.05 | 0.05 | 92 | 1010.8 |
| 20260505035023 | 8 | 88 | 3.2 | 12.9 | 0.05 | 0.05 | 0.05 | 92 | 1010.5 |
| 20260505034024 | 9 | 249 | 12.9 | 11.3 | 0.03 | 0.03 | 0.03 | 93 | 1010.8 |
| 20260505033024 | 9 | 259 | 11.3 | 16.1 | 0.03 | 0.03 | 0.03 | 92 | 1010.8 |
| 20260505031023 | 9 | 266 | 16.1 | 19.3 | 0.03 | 0.03 | 0.03 | 89 | 1010.5 |
| 20260505030023 | 9 | 265 | 12.9 | 14.5 | 0.00 | 0.00 | 0.00 | 86 | 1010.5 |
| 20260505025023 | 10 | 284 | 3.2 | 9.7 | 0.00 | 0.00 | 0.00 | 84 | 1010.2 |
| 20260505024024 | 11 | 281 | 8.0 | 11.3 | 0.00 | 0.00 | 0.00 | 77 | 1010.2 |
| 20260505023024 | 11 | 309 | 6.4 | 12.9 | 0.00 | 0.00 | 0.00 | 73 | 1010.2 |
| 20260505021023 | 12 | 335 | 6.4 | 9.7 | 0.00 | 0.00 | 0.00 | 67 | 1009.8 |
| 20260505020023 | 12 | 337 | 3.2 | 9.7 | 0.00 | 0.00 | 0.00 | 66 | 1009.8 |
| 20260505015024 | 12 | 327 | 6.4 | 9.7 | 0.00 | 0.00 | 0.00 | 65 | 1009.8 |
| 20260505014023 | 12 | 324 | 4.8 | 12.9 | 0.00 | 0.00 | 0.00 | 64 | 1009.8 |
| 20260505013023 | 12 | 269 | 3.2 | 17.7 | 0.00 | 0.00 | 0.00 | 63 | 1009.8 |
| 20260505012023 | 13 | 301 | 6.4 | 20.9 | 0.00 | 0.00 | 0.00 | 61 | 1009.8 |
| 20260505011023 | 13 | 319 | 11.3 | 24.1 | 0.00 | 0.00 | 0.00 | 58 | 1009.5 |
| 20260505010023 | 14 | 350 | 6.4 | 16.1 | 0.00 | 0.00 | 0.00 | 60 | 1009.5 |
| 20260505005023 | 14 | 15 | 4.8 | 12.9 | 0.00 | 0.00 | 0.00 | 62 | 1009.1 |
| 20260505004024 | 14 | 12 | 3.2 | 11.3 | 0.00 | 0.00 | 0.00 | 59 | 1009.1 |
| 20260505003023 | 14 | 11 | 6.4 | 14.5 | 0.00 | 0.00 | 0.00 | 58 | 1009.1 |
| 20260505002023 | 13 | 50 | 1.6 | 11.3 | 0.00 | 0.00 | 0.00 | 60 | 1009.1 |
| 20260505001023 | 13 | 26 | 6.4 | 9.7 | 0.00 | 0.00 | 0.00 | 59 | 1009.1 |
| 20260504234023 | 14 | 345 | 11.3 | 20.9 | 0.00 | 0.00 | 0.00 | 58 | 1008.8 |
| 20260504233023 | 15 | 355 | 14.5 | 17.7 | 0.00 | 0.00 | 0.00 | 50 | 1008.8 |
| 20260504232023 | 15 | 331 | 3.2 | 22.5 | 0.00 | 0.00 | 0.00 | 55 | 1008.8 |
| 20260504231023 | 16 | 272 | 20.9 | 24.1 | 0.00 | 0.00 | 0.00 | 50 | 1008.8 |
| 20260504225023 | 16 | 277 | 11.3 | 22.5 | 0.00 | 0.00 | 0.00 | 45 | 1008.8 |
| 20260504224023 | 16 | 304 | 11.3 | 17.7 | 0.00 | 0.00 | 0.00 | 45 | 1008.8 |
| 20260504223023 | 16 | 309 | 8.0 | 11.3 | 0.00 | 0.00 | 0.00 | 43 | 1008.5 |
| 20260504222023 | 16 | 74 | 6.4 | 14.5 | 0.00 | 0.00 | 0.00 | 44 | 1008.1 |
| 20260504221023 | 16 | 25 | 8.0 | 17.7 | 0.00 | 0.00 | 0.00 | 44 | 1007.8 |
| 20260504220023 | 16 | 6 | 14.5 | 25.7 | 0.00 | 0.00 | 0.00 | 44 | 1007.8 |
| 20260504215023 | 16 | 41 | 8.0 | 35.4 | 0.00 | 0.00 | 0.00 | 47 | 1007.8 |
| 20260504214023 | 17 | 18 | 16.1 | 33.8 | 0.00 | 0.00 | 0.00 | 45 | 1007.8 |
| 20260504213023 | 17 | 333 | 12.9 | 33.8 | 0.00 | 0.00 | 0.00 | 44 | 1008.1 |
| 20260504212123 | 16 | 356 | 20.9 | 27.4 | 0.00 | 0.00 | 0.00 | 40 | 1008.1 |
| 20260504210023 | 16 | 1 | 11.3 | 30.6 | 0.00 | 0.00 | 0.00 | 45 | 1008.5 |
| 20260504205023 | 18 | 13 | 14.5 | 24.1 | 0.00 | 0.00 | 0.00 | 41 | 1008.1 |
| 20260504203023 | 19 | 306 | 16.1 | 20.9 | 0.00 | 0.00 | 0.00 | 32 | 1007.8 |
| 20260504202023 | 20 | 167 | 6.4 | 14.5 | 0.00 | 0.00 | 0.00 | 32 | 1007.5 |
| 20260504195023 | 22 | 21 | 6.4 | 25.7 | 0.00 | 0.00 | 0.00 | 27 | 1007.5 |
| 20260504194023 | 21 | 0 | 16.1 | 24.1 | 0.00 | 0.00 | 0.00 | 27 | 1007.5 |
| 20260504193023 | 21 | 351 | 14.5 | 27.4 | 0.00 | 0.00 | 0.00 | 27 | 1007.5 |
| 20260504192023 | 21 | 310 | 11.3 | 20.9 | 0.00 | 0.00 | 0.00 | 25 | 1007.1 |
| 20260504191023 | 21 | 316 | 14.5 | 25.7 | 0.00 | 0.00 | 0.00 | 24 | 1007.1 |
| 20260504190023 | 21 | 329 | 3.2 | 19.3 | 0.00 | 0.00 | 0.00 | 24 | 1007.1 |
| 20260504185023 | 21 | 14 | 9.7 | 20.9 | 0.00 | 0.00 | 0.00 | 24 | 1007.5 |
| 20260504184023 | 21 | 351 | 12.9 | 22.5 | 0.00 | 0.00 | 0.00 | 27 | 1007.5 |
| 20260504183023 | 21 | 275 | 14.5 | 27.4 | 0.00 | 0.00 | 0.00 | 26 | 1007.5 |
| 20260504182023 | 21 | 302 | 14.5 | 24.1 | 0.00 | 0.00 | 0.00 | 27 | 1007.8 |
| 20260504180023 | 20 | 301 | 14.5 | 27.4 | 0.00 | 0.00 | 0.00 | 27 | 1007.8 |
| 20260504174023 | 20 | 277 | 12.9 | 35.4 | 0.00 | 0.00 | 0.00 | 30 | 1008.1 |
| 20260504173123 | 19 | 281 | 14.5 | 40.2 | 0.00 | 0.00 | 0.00 | 31 | 1008.1 |
| 20260504171023 | 18 | 269 | 9.7 | 19.3 | 0.00 | 0.00 | 0.00 | 32 | 1008.5 |
| 20260504160123 | 17 | 283 | 3.2 | 17.7 | 0.00 | 0.00 | 0.00 | 34 | 1008.8 |
| 20260504151023 | 15 | 227 | 6.4 | 11.3 | 0.00 | 0.00 | 0.00 | 38 | 1008.8 |
| 20260504141123 | 11 | 271 | 3.2 | 8.0 | 0.00 | 0.00 | 0.00 | 43 | 1008.8 |
| 20260504100122 | 8 | 184 | 8.0 | 11.3 | 0.00 | 0.00 | 0.00 | 48 | 1009.1 |
| 20260504090122 | 9 | 216 | 3.2 | 8.0 | 0.00 | 0.00 | 0.00 | 45 | 1009.5 |
| 20260504081022 | 11 | 272 | 8.0 | 9.7 | 0.00 | 0.00 | 0.00 | 42 | 1009.5 |
| 20260504070122 | 12 | 317 | 6.4 | 12.9 | 0.00 | 0.00 | 0.00 | 42 | 1010.2 |